Aérodrome :
LOGIN :

S'inscrire | Disclaimer

   EN    FR    IT 

 










Légende :    VFR   VFR Marginal   IFR   IFR Intensif   IFR Très Intensif
Visi : 
Plafond : 
>= 8 km
>= 3000ft
5 à 8 km
1000 à 3000 ft
1500m à 5 km
500 à 1000 ft
800 à 1500m
200 à 500 ft
< 800m
< 200 ft
Symboles :   Orages  Brouillard  Fortes neiges  Fortes précipitations  Vent > 20 kt
SIGMETs :   Divers  Orages  Givrage  Turbulence  Onde Orograph.  Cendres Volcan.






- Altitude de l'aérodrome : 1959 ft
- Code IATA : HOQ


EDQM - Hof Plauen

DERNIER METAR :
  • 231720Z 01008KT CAVOK 16/11 Q1016

METARs EXPIRÉS :
  • 231650Z 36006KT 330V040 CAVOK 16/12 Q1016
  • 231620Z 34008KT 310V010 9999 FEW045 17/11 Q1016
  • 231550Z 36009KT 320V030 CAVOK 18/12 Q1015
  • 231520Z 34008KT 310V020 CAVOK 17/12 Q1016
  • 231450Z 29008KT 250V350 CAVOK 20/11 Q1015
  • 231420Z VRB02KT CAVOK 20/08 Q1015
  • 231350Z VRB02KT CAVOK 20/09 Q1015
  • 231320Z VRB03KT CAVOK 20/07 Q1015

TAF TAF EDQM
Valide du 23 à 18h jusqu'au 24 à 03h UTC


231700Z 2318/2403 VRB03KT 9999 SCT045
PROB30
TEMPO 2318/2320 02015G25KT TSRA BKN030CB



MET'MAP, la Météo Aéronautique d'un coup d'oeil ! - Copyright ORBIFLY Décembre 2007 - Disclaimer

ORBIFLY MET'MAP TEAM :

Programmation & Développement : Alexandra Zaïnal
Sur une idée originale de : Baudouin d'Aumeries
Soutien technique & logistique : Manuel Goepfert
Assistance : Marc-Olivier Méhu




SOURCES & CREDITS :

   NOAA